createdAt,value
2019-05-18T00:02:22.679Z,100.00
2019-05-18T00:04:53.980Z,100.00
2019-05-18T00:07:23.999Z,100.00
2019-05-18T00:09:54.514Z,100.00
2019-05-18T00:12:24.706Z,100.00
2019-05-18T00:14:54.864Z,100.00
2019-05-18T00:17:28.641Z,100.00
2019-05-18T00:19:58.853Z,100.00
2019-05-18T00:22:28.926Z,100.00
2019-05-18T00:24:58.938Z,100.00
2019-05-18T00:27:29.123Z,100.00
2019-05-18T00:29:59.246Z,100.00
2019-05-18T00:32:29.238Z,100.00
2019-05-18T00:34:59.491Z,100.00
2019-05-18T00:37:31.046Z,100.00
2019-05-18T00:40:01.435Z,100.00
2019-05-18T00:42:31.496Z,100.00
2019-05-18T00:45:02.056Z,100.00
2019-05-18T00:47:40.946Z,100.00
2019-05-18T00:50:04.443Z,100.00
2019-05-18T00:52:34.725Z,100.00
2019-05-18T00:55:06.898Z,100.00
2019-05-18T00:57:37.297Z,100.00
2019-05-18T01:00:07.392Z,100.00
2019-05-18T01:02:37.466Z,100.00
2019-05-18T01:05:07.493Z,100.00
2019-05-18T01:07:37.615Z,100.00
2019-05-18T01:10:07.930Z,100.00
2019-05-18T01:12:38.137Z,100.00
2019-05-18T01:15:08.906Z,100.00
2019-05-18T01:17:39.325Z,100.00
2019-05-18T01:20:09.783Z,100.00
2019-05-18T01:22:39.875Z,100.00
2019-05-18T01:25:10.380Z,100.00
2019-05-18T01:27:40.730Z,100.00
2019-05-18T01:30:11.234Z,100.00
2019-05-18T01:32:41.317Z,100.00
2019-05-18T01:35:12.148Z,100.00
2019-05-18T01:37:42.189Z,100.00
2019-05-18T01:40:12.631Z,100.00
2019-05-18T01:42:42.713Z,100.00
2019-05-18T01:45:17.196Z,100.00
2019-05-18T01:47:45.690Z,100.00
2019-05-18T01:50:17.704Z,100.00
2019-05-18T01:52:48.314Z,100.00
2019-05-18T01:55:18.326Z,100.00
2019-05-18T01:57:51.142Z,100.00
2019-05-18T02:00:21.344Z,100.00
2019-05-18T02:02:51.749Z,100.00
2019-05-18T02:05:21.910Z,100.00
2019-05-18T02:07:52.938Z,100.00
2019-05-18T02:10:23.374Z,100.00
2019-05-18T02:12:54.288Z,100.00
2019-05-18T02:15:24.305Z,100.00
2019-05-18T02:17:54.345Z,100.00
2019-05-18T02:20:24.525Z,100.00
2019-05-18T02:22:54.623Z,100.00
2019-05-18T02:25:25.002Z,100.00
2019-05-18T02:27:55.501Z,100.00
2019-05-18T02:30:25.807Z,100.00
2019-05-18T02:32:55.787Z,100.00
2019-05-18T02:35:26.113Z,100.00
2019-05-18T02:38:13.670Z,100.00
2019-05-18T02:40:44.270Z,100.00
2019-05-18T02:43:14.317Z,100.00
2019-05-18T02:45:44.390Z,100.00
2019-05-18T02:48:14.794Z,100.00
2019-05-18T02:50:44.795Z,100.00
2019-05-18T02:53:14.847Z,100.00
2019-05-18T02:55:45.728Z,100.00
2019-05-18T02:58:16.157Z,100.00
2019-05-18T03:00:46.332Z,100.00
2019-05-18T03:03:16.329Z,100.00
2019-05-18T03:05:46.296Z,100.00
2019-05-18T03:08:16.492Z,100.00
2019-05-18T03:10:46.526Z,100.00
2019-05-18T03:13:16.669Z,100.00
2019-05-18T03:15:46.689Z,100.00
2019-05-18T03:18:17.048Z,100.00
2019-05-18T03:20:47.058Z,100.00
2019-05-18T03:23:19.228Z,100.00
2019-05-18T03:25:49.701Z,100.00
2019-05-18T03:28:20.042Z,100.00
2019-05-18T03:30:50.278Z,100.00
2019-05-18T03:33:20.427Z,100.00
2019-05-18T03:35:50.561Z,100.00
2019-05-18T03:38:21.707Z,100.00
2019-05-18T03:40:52.072Z,100.00
2019-05-18T03:43:22.451Z,100.00
2019-05-18T03:45:52.517Z,100.00
2019-05-18T03:48:22.895Z,100.00
2019-05-18T03:50:52.998Z,100.00
2019-05-18T03:53:23.053Z,100.00
2019-05-18T03:55:53.195Z,100.00
2019-05-18T03:58:23.276Z,100.00
2019-05-18T04:00:53.291Z,100.00
2019-05-18T04:03:23.416Z,100.00
2019-05-18T04:05:53.410Z,100.00
2019-05-18T04:08:23.852Z,100.00
2019-05-18T04:10:53.900Z,100.00
2019-05-18T04:13:24.018Z,100.00
2019-05-18T04:15:54.138Z,100.00
2019-05-18T04:18:24.230Z,100.00
2019-05-18T04:20:54.303Z,100.00
2019-05-18T04:23:24.304Z,100.00
2019-05-18T04:25:55.383Z,100.00
2019-05-18T04:28:25.504Z,100.00
2019-05-18T04:30:55.848Z,100.00
2019-05-18T04:33:25.832Z,100.00
2019-05-18T04:35:55.996Z,100.00
2019-05-18T04:38:26.782Z,100.00
2019-05-18T04:40:57.107Z,100.00
2019-05-18T04:43:27.135Z,100.00
2019-05-18T04:45:57.221Z,100.00
2019-05-18T04:48:27.896Z,100.00
2019-05-18T04:50:58.391Z,100.00
2019-05-18T04:53:28.816Z,100.00
2019-05-18T04:55:59.231Z,100.00
2019-05-18T04:58:29.243Z,100.00
2019-05-18T05:00:59.320Z,100.00
2019-05-18T05:03:29.509Z,100.00
2019-05-18T05:05:59.890Z,100.00
2019-05-18T05:08:29.936Z,100.00
2019-05-18T05:11:00.040Z,100.00
2019-05-18T05:13:30.426Z,100.00
2019-05-18T05:16:00.476Z,100.00
2019-05-18T05:18:30.615Z,100.00
2019-05-18T05:21:00.694Z,100.00
2019-05-18T05:23:31.008Z,100.00
2019-05-18T05:26:01.025Z,100.00
2019-05-18T05:28:34.503Z,100.00
2019-05-18T05:31:04.850Z,100.00
2019-05-18T05:33:34.949Z,100.00
2019-05-18T05:36:08.878Z,100.00
2019-05-18T05:38:38.867Z,100.00
2019-05-18T05:41:08.885Z,100.00
2019-05-18T05:43:39.339Z,100.00
2019-05-18T05:46:09.706Z,100.00
2019-05-18T05:48:41.270Z,100.00
2019-05-18T05:51:11.291Z,100.00
2019-05-18T05:53:42.006Z,100.00
2019-05-18T05:56:12.311Z,100.00
2019-05-18T05:58:42.400Z,100.00
2019-05-18T06:01:12.388Z,100.00
2019-05-18T06:03:42.775Z,100.00
2019-05-18T06:06:12.706Z,100.00
2019-05-18T06:08:43.002Z,100.00
2019-05-18T06:11:13.482Z,100.00
2019-05-18T06:13:49.589Z,100.00
2019-05-18T06:16:20.371Z,100.00
2019-05-18T06:18:50.863Z,100.00
2019-05-18T06:21:20.838Z,100.00
2019-05-18T06:23:51.273Z,100.00
2019-05-18T06:26:24.172Z,100.00
2019-05-18T06:28:56.116Z,100.00
2019-05-18T06:31:26.249Z,100.00
2019-05-18T06:33:56.361Z,100.00
2019-05-18T06:36:26.907Z,100.00
2019-05-18T06:38:57.060Z,100.00
2019-05-18T06:41:27.457Z,100.00
2019-05-18T06:43:58.481Z,100.00
2019-05-18T06:46:29.252Z,100.00
2019-05-18T06:48:59.981Z,100.00
2019-05-18T06:51:30.417Z,100.00
2019-05-18T06:54:00.498Z,100.00
2019-05-18T06:56:31.679Z,100.00
2019-05-18T06:59:01.870Z,100.00
2019-05-18T07:01:31.863Z,100.00
2019-05-18T07:04:03.687Z,100.00
2019-05-18T07:06:33.696Z,100.00
2019-05-18T07:09:12.523Z,100.00
2019-05-18T07:11:38.087Z,100.00
2019-05-18T07:14:09.192Z,100.00
2019-05-18T07:16:39.599Z,100.00
2019-05-18T07:19:10.150Z,100.00
2019-05-18T07:21:40.208Z,100.00
2019-05-18T07:24:10.695Z,100.00
2019-05-18T07:26:41.071Z,100.00
2019-05-18T07:29:11.197Z,100.00
2019-05-18T07:31:41.187Z,100.00
2019-05-18T07:34:11.339Z,100.00
2019-05-18T07:36:41.754Z,100.00
2019-05-18T07:39:13.892Z,100.00
2019-05-18T07:41:46.647Z,100.00
2019-05-18T07:44:15.961Z,100.00
2019-05-18T07:46:47.182Z,100.00
2019-05-18T07:49:17.324Z,100.00
2019-05-18T07:51:47.330Z,100.00
2019-05-18T07:54:17.422Z,100.00
2019-05-18T07:56:47.533Z,100.00
2019-05-18T07:59:19.892Z,100.00
2019-05-18T08:01:49.734Z,100.00
2019-05-18T08:04:19.900Z,100.00
2019-05-18T08:06:50.005Z,100.00
2019-05-18T08:09:20.073Z,100.00
2019-05-18T08:11:50.561Z,100.00
2019-05-18T08:14:20.580Z,100.00
2019-05-18T08:16:51.163Z,100.00
2019-05-18T08:19:21.717Z,100.00
2019-05-18T08:21:53.576Z,100.00
2019-05-18T08:24:23.745Z,100.00
2019-05-18T08:26:55.157Z,100.00
2019-05-18T08:29:25.733Z,100.00
2019-05-18T08:31:56.089Z,100.00
2019-05-18T08:34:26.229Z,100.00
2019-05-18T08:36:56.499Z,100.00
2019-05-18T08:39:26.628Z,100.00
2019-05-18T08:41:56.681Z,100.00
2019-05-18T08:44:26.694Z,100.00
2019-05-18T08:46:56.835Z,100.00
2019-05-18T08:49:26.881Z,100.00
2019-05-18T08:52:07.781Z,100.00
2019-05-18T08:54:29.329Z,100.00
2019-05-18T08:56:59.363Z,100.00
2019-05-18T08:59:29.356Z,100.00
2019-05-18T09:01:59.400Z,100.00
2019-05-18T09:04:29.447Z,100.00
2019-05-18T09:06:59.479Z,100.00
2019-05-18T09:09:29.496Z,100.00
2019-05-18T09:11:59.527Z,100.00
2019-05-18T09:14:29.632Z,100.00
2019-05-18T09:17:00.012Z,100.00
2019-05-18T09:19:30.129Z,100.00
2019-05-18T09:22:00.269Z,100.00
2019-05-18T09:24:30.354Z,100.00
2019-05-18T09:27:00.307Z,100.00
2019-05-18T09:29:30.824Z,100.00
2019-05-18T09:32:00.872Z,100.00
2019-05-18T09:34:30.994Z,100.00
2019-05-18T09:37:01.348Z,100.00
2019-05-18T09:39:35.051Z,100.00
2019-05-18T09:42:05.175Z,100.00
2019-05-18T09:44:35.255Z,100.00
2019-05-18T09:47:05.287Z,100.00
2019-05-18T09:49:35.421Z,100.00
2019-05-18T09:52:06.084Z,100.00
2019-05-18T09:54:36.836Z,100.00
2019-05-18T09:57:07.054Z,100.00
2019-05-18T09:59:37.106Z,100.00
2019-05-18T10:02:07.243Z,100.00
2019-05-18T10:04:37.317Z,100.00
2019-05-18T10:07:07.382Z,100.00
2019-05-18T10:09:39.513Z,100.00
2019-05-18T10:12:09.399Z,100.00
2019-05-18T10:14:41.001Z,100.00
2019-05-18T10:17:11.188Z,100.00
2019-05-18T10:19:41.218Z,100.00
2019-05-18T10:22:11.793Z,100.00
2019-05-18T10:24:41.929Z,100.00
2019-05-18T10:27:12.027Z,100.00
2019-05-18T10:29:42.285Z,100.00
2019-05-18T10:32:12.538Z,100.00
2019-05-18T10:34:43.030Z,100.00
2019-05-18T10:37:14.082Z,100.00
2019-05-18T10:39:44.166Z,100.00
2019-05-18T10:42:14.487Z,100.00
2019-05-18T10:44:44.981Z,100.00
2019-05-18T10:47:20.926Z,100.00
2019-05-18T10:49:52.118Z,100.00
2019-05-18T10:52:25.114Z,100.00
2019-05-18T10:54:55.908Z,100.00
2019-05-18T10:57:26.545Z,100.00
2019-05-18T10:59:57.230Z,100.00
2019-05-18T11:02:27.433Z,100.00
2019-05-18T11:04:57.654Z,100.00
2019-05-18T11:07:30.978Z,100.00
2019-05-18T11:10:01.579Z,100.00
2019-05-18T11:12:32.033Z,100.00
2019-05-18T11:15:02.307Z,100.00
2019-05-18T11:17:32.964Z,100.00
2019-05-18T11:20:03.970Z,100.00
2019-05-18T11:22:34.295Z,100.00
2019-05-18T11:25:04.761Z,100.00
2019-05-18T11:27:37.239Z,100.00
2019-05-18T11:30:09.006Z,100.00
2019-05-18T11:32:39.616Z,100.00
2019-05-18T11:35:10.206Z,100.00
2019-05-18T11:37:40.761Z,100.00
2019-05-18T11:40:11.487Z,100.00
2019-05-18T11:42:41.870Z,100.00
2019-05-18T11:45:13.447Z,100.00
2019-05-18T11:47:44.268Z,100.00
2019-05-18T11:50:14.684Z,100.00
2019-05-18T11:52:48.454Z,100.00
2019-05-18T11:55:21.786Z,100.00
2019-05-18T11:57:52.298Z,100.00
2019-05-18T12:00:23.902Z,100.00
2019-05-18T12:02:54.535Z,100.00
2019-05-18T12:05:25.570Z,100.00
2019-05-18T12:07:55.834Z,100.00
2019-05-18T12:10:26.062Z,100.00
2019-05-18T12:12:56.407Z,100.00
2019-05-18T12:15:27.506Z,100.00
2019-05-18T12:17:57.871Z,100.00
2019-05-18T12:20:27.919Z,100.00
2019-05-18T12:23:01.465Z,100.00
2019-05-18T12:25:32.239Z,100.00
2019-05-18T12:28:03.623Z,100.00
2019-05-18T12:30:33.923Z,100.00
2019-05-18T12:33:04.056Z,100.00
2019-05-18T12:35:34.801Z,100.00
2019-05-18T12:38:04.831Z,100.00
2019-05-18T12:40:34.952Z,96.44
2019-05-18T12:43:04.986Z,98.44
2019-05-18T12:45:37.965Z,95.84
2019-05-18T12:48:08.233Z,96.02
2019-05-18T12:50:38.572Z,96.80
2019-05-18T12:53:08.590Z,100.00
2019-05-18T12:55:38.850Z,100.00
2019-05-18T12:58:08.965Z,100.00
2019-05-18T13:00:39.028Z,100.00
2019-05-18T13:03:09.633Z,100.00
2019-05-18T13:05:39.762Z,100.00
2019-05-18T13:08:10.127Z,100.00
2019-05-18T13:10:40.167Z,100.00
2019-05-18T13:13:10.210Z,100.00
2019-05-18T13:15:40.653Z,100.00
2019-05-18T13:18:11.271Z,95.67
2019-05-18T13:20:42.284Z,92.01
2019-05-18T13:23:12.405Z,89.32
2019-05-18T13:25:43.333Z,93.67
2019-05-18T13:28:13.346Z,92.20
2019-05-18T13:30:44.990Z,93.27
2019-05-18T13:33:14.959Z,87.32
2019-05-18T13:35:45.921Z,92.20
2019-05-18T13:38:16.014Z,92.99
2019-05-18T13:40:47.334Z,89.01
2019-05-18T13:43:17.617Z,91.12
2019-05-18T13:45:48.161Z,92.06
2019-05-18T13:48:18.685Z,96.75
2019-05-18T13:50:48.691Z,96.36
2019-05-18T13:53:18.685Z,88.11
2019-05-18T13:55:48.859Z,89.95
2019-05-18T13:58:18.933Z,94.16
2019-05-18T14:00:48.954Z,98.07
2019-05-18T14:03:19.317Z,100.00
2019-05-18T14:05:49.302Z,100.00
2019-05-18T14:08:19.317Z,98.42
2019-05-18T14:10:49.727Z,96.48
2019-05-18T14:13:19.737Z,96.06
2019-05-18T14:15:49.986Z,94.81
2019-05-18T14:18:22.201Z,97.07
2019-05-18T14:20:52.168Z,92.79
2019-05-18T14:23:22.287Z,89.11
2019-05-18T14:25:52.758Z,86.32
2019-05-18T14:28:22.784Z,85.02
2019-05-18T14:30:53.207Z,87.74
2019-05-18T14:33:23.346Z,90.71
2019-05-18T14:35:53.393Z,88.93
2019-05-18T14:38:23.480Z,89.61
2019-05-18T14:40:54.528Z,93.13
2019-05-18T14:43:24.627Z,95.86
2019-05-18T14:45:54.893Z,94.35
2019-05-18T14:48:25.430Z,92.79
2019-05-18T14:50:55.521Z,91.98
2019-05-18T14:53:27.386Z,91.75
2019-05-18T14:55:57.942Z,94.63
2019-05-18T14:58:28.275Z,96.41
2019-05-18T15:00:59.155Z,94.96
2019-05-18T15:03:31.382Z,98.10
2019-05-18T15:06:01.431Z,93.33
2019-05-18T15:08:32.994Z,96.64
2019-05-18T15:11:03.281Z,98.24
2019-05-18T15:13:33.333Z,98.47
2019-05-18T15:16:04.168Z,96.74
2019-05-18T15:18:34.271Z,97.59
2019-05-18T15:21:11.401Z,100.00
2019-05-18T15:23:42.941Z,100.00
2019-05-18T15:26:13.177Z,100.00
2019-05-18T15:28:43.367Z,100.00
2019-05-18T15:31:13.345Z,97.87
2019-05-18T15:33:43.431Z,97.49
2019-05-18T15:36:14.419Z,97.70
2019-05-18T15:38:44.521Z,98.93
2019-05-18T15:41:15.328Z,96.67
2019-05-18T15:43:46.469Z,96.70
2019-05-18T15:46:17.121Z,100.00
2019-05-18T15:48:47.146Z,100.00
2019-05-18T15:51:17.630Z,100.00
2019-05-18T15:53:47.656Z,100.00
2019-05-18T15:56:17.818Z,100.00
2019-05-18T15:58:48.472Z,100.00
2019-05-18T16:01:18.584Z,100.00
2019-05-18T16:03:49.077Z,100.00
2019-05-18T16:06:19.356Z,100.00
2019-05-18T16:08:50.691Z,100.00
2019-05-18T16:11:20.738Z,100.00
2019-05-18T16:13:50.993Z,100.00
2019-05-18T16:16:21.584Z,100.00
2019-05-18T16:18:52.039Z,100.00
2019-05-18T16:21:22.403Z,100.00
2019-05-18T16:23:52.552Z,100.00
2019-05-18T16:26:22.784Z,100.00
2019-05-18T16:28:53.144Z,100.00
2019-05-18T16:31:26.359Z,100.00
2019-05-18T16:33:56.440Z,100.00
2019-05-18T16:36:26.807Z,100.00
2019-05-18T16:38:56.854Z,100.00
2019-05-18T16:41:27.019Z,100.00
2019-05-18T16:43:57.031Z,100.00
2019-05-18T16:46:27.077Z,100.00
2019-05-18T16:48:57.732Z,100.00
2019-05-18T16:51:30.117Z,100.00
2019-05-18T16:54:00.432Z,100.00
2019-05-18T16:56:35.154Z,100.00
2019-05-18T16:59:02.229Z,100.00
2019-05-18T17:01:32.211Z,100.00
2019-05-18T17:04:02.304Z,100.00
2019-05-18T17:06:32.452Z,100.00
2019-05-18T17:09:02.503Z,100.00
2019-05-18T17:11:33.952Z,100.00
2019-05-18T17:14:04.319Z,100.00
2019-05-18T17:16:34.448Z,100.00
2019-05-18T17:19:04.455Z,100.00
2019-05-18T17:21:34.483Z,100.00
2019-05-18T17:24:04.818Z,100.00
2019-05-18T17:26:50.067Z,100.00
2019-05-18T17:29:06.975Z,100.00
2019-05-18T17:31:37.220Z,100.00
2019-05-18T17:34:07.886Z,100.00
2019-05-18T17:36:38.406Z,100.00
2019-05-18T17:39:08.746Z,100.00
2019-05-18T17:41:38.849Z,100.00
2019-05-18T17:44:08.899Z,100.00
2019-05-18T17:46:38.924Z,100.00
2019-05-18T17:49:24.634Z,100.00
2019-05-18T17:51:41.289Z,100.00
2019-05-18T17:54:11.317Z,100.00
2019-05-18T17:56:43.261Z,100.00
2019-05-18T17:59:13.758Z,100.00
2019-05-18T18:01:44.249Z,100.00
2019-05-18T18:04:14.809Z,100.00
2019-05-18T18:06:45.460Z,100.00
2019-05-18T18:09:35.124Z,100.00
2019-05-18T18:12:05.205Z,100.00
2019-05-18T18:14:35.265Z,100.00
2019-05-18T18:17:06.259Z,100.00
2019-05-18T18:19:37.215Z,100.00
2019-05-18T18:22:07.298Z,100.00
2019-05-18T18:24:37.372Z,100.00
2019-05-18T18:27:07.417Z,100.00
2019-05-18T18:29:37.444Z,100.00
2019-05-18T18:32:07.873Z,100.00
2019-05-18T18:34:38.287Z,100.00
2019-05-18T18:37:08.450Z,100.00
2019-05-18T18:39:39.869Z,100.00
2019-05-18T18:42:09.913Z,100.00
2019-05-18T18:44:41.337Z,100.00
2019-05-18T18:47:11.500Z,100.00
2019-05-18T18:49:42.657Z,100.00
2019-05-18T18:52:14.268Z,100.00
2019-05-18T18:54:44.702Z,100.00
2019-05-18T18:57:15.106Z,100.00
2019-05-18T18:59:45.380Z,100.00
2019-05-18T19:02:15.436Z,100.00
2019-05-18T19:04:45.553Z,100.00
2019-05-18T19:07:16.252Z,100.00
2019-05-18T19:09:46.432Z,100.00
2019-05-18T19:12:16.636Z,100.00
2019-05-18T19:14:46.931Z,100.00
2019-05-18T19:17:17.335Z,100.00
2019-05-18T19:19:47.273Z,100.00
2019-05-18T19:22:18.309Z,100.00
2019-05-18T19:24:48.767Z,100.00
2019-05-18T19:27:19.154Z,100.00
2019-05-18T19:29:49.230Z,100.00
2019-05-18T19:32:19.528Z,100.00
2019-05-18T19:34:49.566Z,100.00
2019-05-18T19:37:20.002Z,100.00
2019-05-18T19:39:50.126Z,100.00
2019-05-18T19:42:20.150Z,100.00
2019-05-18T19:44:50.756Z,100.00
2019-05-18T19:47:20.939Z,100.00
2019-05-18T19:49:52.346Z,100.00
2019-05-18T19:52:22.958Z,100.00
2019-05-18T19:54:53.253Z,100.00
2019-05-18T19:57:23.678Z,100.00
2019-05-18T19:59:54.072Z,100.00
2019-05-18T20:02:27.121Z,100.00
2019-05-18T20:05:07.112Z,100.00
2019-05-18T20:07:29.497Z,100.00
2019-05-18T20:09:59.599Z,100.00
2019-05-18T20:12:29.710Z,100.00
2019-05-18T20:15:03.382Z,100.00
2019-05-18T20:17:33.864Z,100.00
2019-05-18T20:20:05.030Z,100.00
2019-05-18T20:22:35.239Z,100.00
2019-05-18T20:25:05.987Z,100.00
2019-05-18T20:27:36.463Z,100.00
2019-05-18T20:30:07.266Z,100.00
2019-05-18T20:32:38.014Z,100.00
2019-05-18T20:35:08.619Z,100.00
2019-05-18T20:37:39.290Z,100.00
2019-05-18T20:40:09.621Z,100.00
2019-05-18T20:42:40.032Z,100.00
2019-05-18T20:45:11.236Z,100.00
2019-05-18T20:47:41.462Z,100.00
2019-05-18T20:50:14.713Z,100.00
2019-05-18T20:52:46.864Z,100.00
2019-05-18T20:55:16.931Z,100.00
2019-05-18T20:57:47.946Z,100.00
2019-05-18T21:00:18.140Z,100.00
2019-05-18T21:02:48.617Z,100.00
2019-05-18T21:05:19.189Z,100.00
2019-05-18T21:07:49.336Z,100.00
2019-05-18T21:10:19.850Z,100.00
2019-05-18T21:12:50.293Z,100.00
2019-05-18T21:15:20.284Z,100.00
2019-05-18T21:17:50.818Z,100.00
2019-05-18T21:20:21.342Z,100.00
2019-05-18T21:22:51.373Z,100.00
2019-05-18T21:25:23.565Z,100.00
2019-05-18T21:27:53.699Z,100.00
2019-05-18T21:30:23.974Z,100.00
2019-05-18T21:32:55.203Z,100.00
2019-05-18T21:35:28.024Z,100.00
2019-05-18T21:37:58.478Z,100.00
2019-05-18T21:40:28.679Z,100.00
2019-05-18T21:42:58.769Z,100.00
2019-05-18T21:45:29.695Z,100.00
2019-05-18T21:48:00.033Z,100.00
2019-05-18T21:50:31.103Z,100.00
2019-05-18T21:53:02.207Z,100.00
2019-05-18T21:55:32.833Z,100.00
2019-05-18T21:58:02.862Z,100.00
2019-05-18T22:00:34.612Z,100.00
2019-05-18T22:03:05.201Z,100.00
2019-05-18T22:05:35.800Z,100.00
2019-05-18T22:08:06.738Z,100.00
2019-05-18T22:10:38.347Z,100.00
2019-05-18T22:13:08.559Z,100.00
2019-05-18T22:15:39.176Z,100.00
2019-05-18T22:18:23.664Z,100.00
2019-05-18T22:20:44.560Z,100.00
2019-05-18T22:23:14.919Z,100.00
2019-05-18T22:25:45.387Z,100.00
2019-05-18T22:28:16.897Z,100.00
2019-05-18T22:30:47.484Z,100.00
2019-05-18T22:33:20.310Z,100.00
2019-05-18T22:35:50.427Z,100.00
2019-05-18T22:38:23.432Z,100.00
2019-05-18T22:40:54.059Z,100.00
2019-05-18T22:43:25.815Z,100.00
2019-05-18T22:45:56.918Z,100.00
2019-05-18T22:48:40.774Z,100.00
2019-05-18T22:51:08.506Z,100.00
2019-05-18T22:53:39.563Z,100.00
2019-05-18T22:56:10.913Z,100.00
2019-05-18T22:58:41.092Z,100.00
2019-05-18T23:01:12.428Z,100.00
2019-05-18T23:03:43.427Z,100.00
2019-05-18T23:06:13.889Z,100.00
2019-05-18T23:08:44.200Z,100.00
2019-05-18T23:11:18.738Z,100.00
2019-05-18T23:13:48.839Z,100.00
2019-05-18T23:16:19.209Z,100.00
2019-05-18T23:18:56.783Z,100.00
2019-05-18T23:21:26.420Z,100.00
2019-05-18T23:23:56.472Z,100.00
2019-05-18T23:26:27.223Z,100.00
2019-05-18T23:28:59.290Z,100.00
2019-05-18T23:31:32.943Z,100.00
2019-05-18T23:34:03.453Z,100.00
2019-05-18T23:36:35.230Z,100.00
2019-05-18T23:39:06.250Z,100.00
2019-05-18T23:41:36.436Z,100.00
2019-05-18T23:44:07.496Z,100.00
2019-05-18T23:46:38.656Z,100.00
2019-05-18T23:49:11.197Z,100.00
2019-05-18T23:51:40.934Z,100.00
2019-05-18T23:54:11.330Z,100.00
2019-05-18T23:56:41.417Z,100.00
2019-05-18T23:59:11.919Z,100.00
